PWSweather.com
Personal Weather Stations
Station Observations
KAZSIERR7
Canyon De Flores, Sierra Vista, AZ 85650

Canyon De FloresSierra Vista, AZ 85650

Lat: 31.5, Lon: -110.26

Elevation: 4645

Station Type: LaCrosse WS-3610 & Boltek Lightning Detector

http://www.lightningring.com/weather/

High Low Average
Temperature 96.2°F35.7°C 78.4°F25.8°C 89.8°F32.1°C
Dew Point 49.3°F9.6°C 40.5°F4.7°C 44.8°F7.1°C
Winds 9.8 mph 15.8 kmh Calm Calm 4.0 mph SE6.4 kmh SE
Wind Gusts 58.0 mph93.3 kmh -- 21.0 mph33.8 kmh
Humidity 33% 15% 22%
Pressure 30.04 in1017.3 mb 29.92 in1013.2 mb -
Precipitation 0.00 in0.0 mm - -
Hour Temp Dew Point Humidity Winds Wind Gusts Pressure Precip Precip Rate Daily Precip Total
07:16 AM 78.4°F25.8°C 45.9°F7.7°C 32% Calm Calm -- 30.03 in1016.9 mb 0.00 in0.0 mm 0.00 in/hr0.0 mm/hr 0.00 in0.0 mm
07:27 AM 79.3°F26.3°C 45.0°F7.2°C 30% Calm Calm -- 30.03 in1016.9 mb 0.00 in0.0 mm 0.00 in/hr0.0 mm/hr 0.00 in0.0 mm
07:37 AM 80.2°F26.8°C 45.8°F7.7°C 30% 0.6 mph NE1.0 kmh NE 0.8 mph1.3 kmh 30.03 in1016.9 mb 0.00 in0.0 mm 0.00 in/hr0.0 mm/hr 0.00 in0.0 mm
07:48 AM 81.0°F27.2°C 47.3°F8.5°C 31% Calm Calm -- 30.04 in1017.3 mb 0.00 in0.0 mm 0.00 in/hr0.0 mm/hr 0.00 in0.0 mm
07:58 AM 81.3°F27.4°C 49.3°F9.6°C 33% Calm Calm -- 30.04 in1017.3 mb 0.00 in0.0 mm 0.00 in/hr0.0 mm/hr 0.00 in0.0 mm
08:08 AM 83.1°F28.4°C 48.3°F9.1°C 30% Calm Calm -- 30.03 in1016.9 mb 0.00 in0.0 mm 0.00 in/hr0.0 mm/hr 0.00 in0.0 mm
08:19 AM 83.1°F28.4°C 47.5°F8.6°C 29% 0.6 mph SE1.0 kmh SE 0.8 mph1.3 kmh 30.03 in1016.9 mb 0.00 in0.0 mm 0.00 in/hr0.0 mm/hr 0.00 in0.0 mm
08:29 AM 82.8°F28.2°C 46.2°F7.9°C 28% 4.9 mph NE7.9 kmh NE 6.6 mph10.6 kmh 30.03 in1016.9 mb 0.00 in0.0 mm 0.00 in/hr0.0 mm/hr 0.00 in0.0 mm
08:40 AM 84.8°F29.3°C 48.0°F8.9°C 28% 0.9 mph NE1.4 kmh NE 1.2 mph1.9 kmh 30.02 in1016.6 mb 0.00 in0.0 mm 0.00 in/hr0.0 mm/hr 0.00 in0.0 mm
08:50 AM 83.0°F28.3°C 47.4°F8.6°C 29% 6.3 mph ENE10.1 kmh ENE 8.4 mph13.5 kmh 30.01 in1016.3 mb 0.00 in0.0 mm 0.00 in/hr0.0 mm/hr 0.00 in0.0 mm
09:01 AM 82.1°F27.8°C 49.2°F9.6°C 32% 3.5 mph NE5.6 kmh NE 8.4 mph13.5 kmh 30.02 in1016.6 mb 0.00 in0.0 mm 0.00 in/hr0.0 mm/hr 0.00 in0.0 mm
09:11 AM 83.2°F28.4°C 47.5°F8.6°C 29% 3.6 mph NE5.8 kmh NE 6.6 mph10.6 kmh 30.02 in1016.6 mb 0.00 in0.0 mm 0.00 in/hr0.0 mm/hr 0.00 in0.0 mm
09:22 AM 85.1°F29.5°C 49.1°F9.5°C 29% Calm Calm 5.2 mph8.4 kmh 30.02 in1016.6 mb 0.00 in0.0 mm 0.00 in/hr0.0 mm/hr 0.00 in0.0 mm
09:32 AM 87.6°F30.9°C 47.4°F8.6°C 25% 4.6 mph NE7.4 kmh NE 6.2 mph10.0 kmh 30.01 in1016.3 mb 0.00 in0.0 mm 0.00 in/hr0.0 mm/hr 0.00 in0.0 mm
09:43 AM 89.3°F31.8°C 46.6°F8.1°C 23% 3.9 mph NE6.3 kmh NE 6.2 mph10.0 kmh 30.02 in1016.6 mb 0.00 in0.0 mm 0.00 in/hr0.0 mm/hr 0.00 in0.0 mm
09:53 AM 90.3°F32.4°C 45.0°F7.2°C 21% 4.6 mph NE7.4 kmh NE 6.2 mph10.0 kmh 30.01 in1016.3 mb 0.00 in0.0 mm 0.00 in/hr0.0 mm/hr 0.00 in0.0 mm
10:04 AM 91.3°F32.9°C 48.3°F9.1°C 23% Calm Calm 5.2 mph8.4 kmh 30.02 in1016.6 mb 0.00 in0.0 mm 0.00 in/hr0.0 mm/hr 0.00 in0.0 mm
10:14 AM 92.1°F33.4°C 46.5°F8.1°C 21% 3.0 mph SE4.8 kmh SE 4.0 mph6.4 kmh 30.02 in1016.6 mb 0.00 in0.0 mm 0.00 in/hr0.0 mm/hr 0.00 in0.0 mm
10:25 AM 92.0°F33.3°C 46.5°F8.1°C 21% 3.9 mph SSW6.3 kmh SSW 5.2 mph8.4 kmh 30.02 in1016.6 mb 0.00 in0.0 mm 0.00 in/hr0.0 mm/hr 0.00 in0.0 mm
10:35 AM 91.9°F33.3°C 45.1°F7.3°C 20% 7.5 mph WNW12.1 kmh WNW 28.0 mph45.1 kmh 30.02 in1016.6 mb 0.00 in0.0 mm 0.00 in/hr0.0 mm/hr 0.00 in0.0 mm
10:46 AM 92.0°F33.3°C 43.8°F6.6°C 19% 3.7 mph NNE6.0 kmh NNE 9.8 mph15.8 kmh 30.02 in1016.6 mb 0.00 in0.0 mm 0.00 in/hr0.0 mm/hr 0.00 in0.0 mm
10:56 AM 91.7°F33.2°C 44.9°F7.2°C 20% 3.3 mph 5.3 kmh 9.8 mph15.8 kmh 30.02 in1016.6 mb 0.00 in0.0 mm 0.00 in/hr0.0 mm/hr 0.00 in0.0 mm
11:07 AM 92.3°F33.5°C 44.1°F6.7°C 19% 6.3 mph ENE10.1 kmh ENE 26.2 mph42.2 kmh 30.02 in1016.6 mb 0.00 in0.0 mm 0.00 in/hr0.0 mm/hr 0.00 in0.0 mm
11:17 AM 93.7°F34.3°C 45.2°F7.3°C 19% 2.0 mph NE3.2 kmh NE 8.4 mph13.5 kmh 30.01 in1016.3 mb 0.00 in0.0 mm 0.00 in/hr0.0 mm/hr 0.00 in0.0 mm
11:28 AM 92.1°F33.4°C 45.3°F7.4°C 20% 4.5 mph E7.2 kmh E 8.0 mph12.9 kmh 30.01 in1016.3 mb 0.00 in0.0 mm 0.00 in/hr0.0 mm/hr 0.00 in0.0 mm
11:38 AM 92.9°F33.8°C 43.2°F6.2°C 18% 6.7 mph NNE10.8 kmh NNE 21.4 mph34.4 kmh 30.01 in1016.3 mb 0.00 in0.0 mm 0.00 in/hr0.0 mm/hr 0.00 in0.0 mm
11:49 AM 94.0°F34.4°C 45.5°F7.5°C 19% 4.4 mph NW7.1 kmh NW 42.4 mph68.2 kmh 30.00 in1015.9 mb 0.00 in0.0 mm 0.00 in/hr0.0 mm/hr 0.00 in0.0 mm
11:59 AM 93.4°F34.1°C 43.6°F6.4°C 18% 6.4 mph NE10.3 kmh NE 51.4 mph82.7 kmh 30.00 in1015.9 mb 0.00 in0.0 mm 0.00 in/hr0.0 mm/hr 0.00 in0.0 mm
12:10 PM 93.2°F34.0°C 44.8°F7.1°C 19% 5.7 mph NE9.2 kmh NE 57.2 mph92.1 kmh 30.00 in1015.9 mb 0.00 in0.0 mm 0.00 in/hr0.0 mm/hr 0.00 in0.0 mm
12:20 PM 92.8°F33.8°C 43.1°F6.2°C 18% 9.8 mph NW15.8 kmh NW 53.2 mph85.6 kmh 30.00 in1015.9 mb 0.00 in0.0 mm 0.00 in/hr0.0 mm/hr 0.00 in0.0 mm
12:30 PM 93.6°F34.2°C 43.8°F6.6°C 18% 4.7 mph NNW7.6 kmh NNW 41.6 mph66.9 kmh 30.00 in1015.9 mb 0.00 in0.0 mm 0.00 in/hr0.0 mm/hr 0.00 in0.0 mm
12:41 PM 93.1°F33.9°C 43.3°F6.3°C 18% 4.9 mph NE7.9 kmh NE 42.0 mph67.6 kmh 29.99 in1015.6 mb 0.00 in0.0 mm 0.00 in/hr0.0 mm/hr 0.00 in0.0 mm
12:52 PM 94.0°F34.4°C 42.6°F5.9°C 17% 3.3 mph NNE5.3 kmh NNE 7.0 mph11.3 kmh 29.99 in1015.6 mb 0.00 in0.0 mm 0.00 in/hr0.0 mm/hr 0.00 in0.0 mm
01:02 PM 94.5°F34.7°C 43.0°F6.1°C 17% 5.6 mph NNE9.0 kmh NNE 9.2 mph14.8 kmh 29.98 in1015.2 mb 0.00 in0.0 mm 0.00 in/hr0.0 mm/hr 0.00 in0.0 mm
01:12 PM 91.1°F32.8°C 41.7°F5.4°C 18% 6.5 mph NE10.5 kmh NE 49.6 mph79.8 kmh 29.98 in1015.2 mb 0.00 in0.0 mm 0.00 in/hr0.0 mm/hr 0.00 in0.0 mm
01:23 PM 91.5°F33.1°C 42.0°F5.6°C 18% 6.1 mph NE9.8 kmh NE 47.8 mph76.9 kmh 29.98 in1015.2 mb 0.00 in0.0 mm 0.00 in/hr0.0 mm/hr 0.00 in0.0 mm
01:33 PM 92.2°F33.4°C 42.6°F5.9°C 18% 5.2 mph E8.4 kmh E 46.4 mph74.7 kmh 29.97 in1014.9 mb 0.00 in0.0 mm 0.00 in/hr0.0 mm/hr 0.00 in0.0 mm
01:44 PM 94.1°F34.5°C 42.6°F5.9°C 17% 6.2 mph NNW10.0 kmh NNW 56.8 mph91.4 kmh 29.97 in1014.9 mb 0.00 in0.0 mm 0.00 in/hr0.0 mm/hr 0.00 in0.0 mm
01:54 PM 94.8°F34.9°C 43.2°F6.2°C 17% 4.2 mph ENE6.8 kmh ENE 32.2 mph51.8 kmh 29.96 in1014.6 mb 0.00 in0.0 mm 0.00 in/hr0.0 mm/hr 0.00 in0.0 mm
02:05 PM 96.2°F35.7°C 44.3°F6.8°C 17% 2.3 mph NNW3.7 kmh NNW 8.0 mph12.9 kmh 29.96 in1014.6 mb 0.00 in0.0 mm 0.00 in/hr0.0 mm/hr 0.00 in0.0 mm
02:15 PM 95.5°F35.3°C 40.5°F4.7°C 15% 4.7 mph NNW7.6 kmh NNW 57.2 mph92.1 kmh 29.96 in1014.6 mb 0.00 in0.0 mm 0.00 in/hr0.0 mm/hr 0.00 in0.0 mm
02:26 PM 93.0°F33.9°C 41.7°F5.4°C 17% 3.9 mph NNW6.3 kmh NNW 5.2 mph8.4 kmh 29.96 in1014.6 mb 0.00 in0.0 mm 0.00 in/hr0.0 mm/hr 0.00 in0.0 mm
02:36 PM 92.8°F33.8°C 43.0°F6.1°C 18% Calm Calm 33.0 mph53.1 kmh 29.95 in1014.2 mb 0.00 in0.0 mm 0.00 in/hr0.0 mm/hr 0.00 in0.0 mm
02:47 PM 92.4°F33.6°C 44.2°F6.8°C 19% 0.9 mph NE1.4 kmh NE 4.8 mph7.7 kmh 29.95 in1014.2 mb 0.00 in0.0 mm 0.00 in/hr0.0 mm/hr 0.00 in0.0 mm
02:57 PM 93.8°F34.3°C 43.9°F6.6°C 18% Calm Calm 8.0 mph12.9 kmh 29.94 in1013.9 mb 0.00 in0.0 mm 0.00 in/hr0.0 mm/hr 0.00 in0.0 mm
03:08 PM 92.1°F33.4°C 42.5°F5.8°C 18% 6.7 mph NW10.8 kmh NW 39.8 mph64.1 kmh 29.94 in1013.9 mb 0.00 in0.0 mm 0.00 in/hr0.0 mm/hr 0.00 in0.0 mm
03:18 PM 91.1°F32.8°C 44.5°F6.9°C 20% 2.2 mph WNW3.5 kmh WNW 58.0 mph93.3 kmh 29.94 in1013.9 mb 0.00 in0.0 mm 0.00 in/hr0.0 mm/hr 0.00 in0.0 mm
03:29 PM 90.5°F32.5°C 44.0°F6.7°C 20% 5.4 mph NNW8.7 kmh NNW 53.2 mph85.6 kmh 29.94 in1013.9 mb 0.00 in0.0 mm 0.00 in/hr0.0 mm/hr 0.00 in0.0 mm
03:39 PM 89.7°F32.1°C 44.6°F7.0°C 21% 3.0 mph 4.8 kmh 8.0 mph12.9 kmh 29.93 in1013.5 mb 0.00 in0.0 mm 0.00 in/hr0.0 mm/hr 0.00 in0.0 mm
03:50 PM 90.2°F32.3°C 42.3°F5.7°C 19% 2.9 mph NW4.7 kmh NW 51.8 mph83.4 kmh 29.93 in1013.5 mb 0.00 in0.0 mm 0.00 in/hr0.0 mm/hr 0.00 in0.0 mm
04:00 PM 89.3°F31.8°C 42.9°F6.1°C 20% 5.3 mph NNW8.5 kmh NNW 45.6 mph73.4 kmh 29.93 in1013.5 mb 0.00 in0.0 mm 0.00 in/hr0.0 mm/hr 0.00 in0.0 mm
04:11 PM 89.4°F31.9°C 44.3°F6.8°C 21% 4.2 mph NW6.8 kmh NW 6.2 mph10.0 kmh 29.92 in1013.2 mb 0.00 in0.0 mm 0.00 in/hr0.0 mm/hr 0.00 in0.0 mm
04:21 PM 89.6°F32.0°C 43.3°F6.3°C 20% Calm Calm 41.0 mph66.0 kmh 29.92 in1013.2 mb 0.00 in0.0 mm 0.00 in/hr0.0 mm/hr 0.00 in0.0 mm
04:32 PM 92.9°F33.8°C 44.6°F7.0°C 19% 6.8 mph NW10.9 kmh NW 10.6 mph17.1 kmh 29.92 in1013.2 mb 0.00 in0.0 mm 0.00 in/hr0.0 mm/hr 0.00 in0.0 mm
04:42 PM 89.9°F32.2°C 43.5°F6.4°C 20% 6.2 mph WNW10.0 kmh WNW 48.2 mph77.6 kmh 29.91 in1012.9 mb 0.00 in0.0 mm 0.00 in/hr0.0 mm/hr 0.00 in0.0 mm
04:52 PM 89.4°F31.9°C 44.3°F6.8°C 21% 5.8 mph NW9.3 kmh NW 58.0 mph93.3 kmh 29.92 in1013.2 mb 0.00 in0.0 mm 0.00 in/hr0.0 mm/hr 0.00 in0.0 mm
05:03 PM 87.1°F30.6°C 47.9°F8.8°C 26% 4.4 mph WNW7.1 kmh WNW 53.6 mph86.3 kmh 29.92 in1013.2 mb 0.00 in0.0 mm 0.00 in/hr0.0 mm/hr 0.00 in0.0 mm
05:14 PM 85.9°F29.9°C 47.0°F8.3°C 26% 6.3 mph WNW10.1 kmh WNW 8.4 mph13.5 kmh 29.92 in1013.2 mb 0.00 in0.0 mm 0.00 in/hr0.0 mm/hr 0.00 in0.0 mm
05:24 PM 85.1°F29.5°C 48.2°F9.0°C 28% 4.8 mph W7.7 kmh W 8.4 mph13.5 kmh 29.92 in1013.2 mb 0.00 in0.0 mm 0.00 in/hr0.0 mm/hr 0.00 in0.0 mm
05:34 PM 84.9°F29.4°C 48.0°F8.9°C 28% 5.7 mph W9.2 kmh W 7.6 mph12.2 kmh 29.92 in1013.2 mb 0.00 in0.0 mm 0.00 in/hr0.0 mm/hr 0.00 in0.0 mm
05:45 PM 84.6°F29.2°C 47.8°F8.8°C 28% 4.4 mph WSW7.1 kmh WSW 10.2 mph16.4 kmh 29.91 in1012.9 mb 0.00 in0.0 mm 0.00 in/hr0.0 mm/hr 0.00 in0.0 mm
05:56 PM 83.9°F28.8°C 49.9°F9.9°C 31% 7.2 mph W11.6 kmh W 41.6 mph66.9 kmh 29.92 in1013.2 mb 0.00 in0.0 mm 0.00 in/hr0.0 mm/hr 0.00 in0.0 mm
06:06 PM 82.9°F28.3°C 49.9°F9.9°C 32% 6.8 mph W10.9 kmh W 64.4 mph103.6 kmh 29.92 in1013.2 mb 0.00 in0.0 mm 0.00 in/hr0.0 mm/hr 0.00 in0.0 mm
06:16 PM 82.5°F28.1°C 50.3°F10.2°C 33% 5.2 mph WSW8.4 kmh WSW 61.6 mph99.1 kmh 29.92 in1013.2 mb 0.00 in0.0 mm 0.00 in/hr0.0 mm/hr 0.00 in0.0 mm
06:27 PM 82.6°F28.1°C 50.5°F10.3°C 33% 4.1 mph W6.6 kmh W 46.0 mph74.0 kmh 29.93 in1013.5 mb 0.00 in0.0 mm 0.00 in/hr0.0 mm/hr 0.00 in0.0 mm
06:37 PM 82.5°F28.1°C 50.4°F10.2°C 33% 6.4 mph NW10.3 kmh NW 9.2 mph14.8 kmh 29.93 in1013.5 mb 0.00 in0.0 mm 0.00 in/hr0.0 mm/hr 0.00 in0.0 mm
06:48 PM 82.7°F28.2°C 49.7°F9.8°C 32% 8.7 mph WNW14.0 kmh WNW 60.8 mph97.8 kmh 29.93 in1013.5 mb 0.00 in0.0 mm 0.00 in/hr0.0 mm/hr 0.00 in0.0 mm
06:58 PM 82.0°F27.8°C 49.9°F9.9°C 33% 8.0 mph WNW12.9 kmh WNW 57.2 mph92.1 kmh 29.94 in1013.9 mb 0.00 in0.0 mm 0.00 in/hr0.0 mm/hr 0.00 in0.0 mm
07:09 PM 81.6°F27.6°C 49.6°F9.8°C 33% 6.9 mph W11.1 kmh W 47.8 mph76.9 kmh 29.94 in1013.9 mb 0.00 in0.0 mm 0.00 in/hr0.0 mm/hr 0.00 in0.0 mm
07:19 PM 80.9°F27.2°C 49.0°F9.4°C 33% 7.6 mph WNW12.2 kmh WNW 53.2 mph85.6 kmh 29.94 in1013.9 mb 0.00 in0.0 mm 0.00 in/hr0.0 mm/hr 0.00 in0.0 mm
07:30 PM 80.4°F26.9°C 48.5°F9.2°C 33% 6.7 mph W10.8 kmh W 45.6 mph73.4 kmh 29.94 in1013.9 mb 0.00 in0.0 mm 0.00 in/hr0.0 mm/hr 0.00 in0.0 mm
07:40 PM 79.6°F26.4°C 48.6°F9.2°C 34% 4.3 mph W6.9 kmh W 47.8 mph76.9 kmh 29.94 in1013.9 mb 0.00 in0.0 mm 0.00 in/hr0.0 mm/hr 0.00 in0.0 mm
07:51 PM 78.9°F26.1°C 48.8°F9.3°C 35% 4.6 mph W7.4 kmh W 47.4 mph76.3 kmh 29.95 in1014.2 mb 0.00 in0.0 mm 0.00 in/hr0.0 mm/hr 0.00 in0.0 mm
08:01 PM 78.2°F25.7°C 49.7°F9.8°C 37% 3.0 mph WNW4.8 kmh WNW 4.8 mph7.7 kmh 29.96 in1014.6 mb 0.00 in0.0 mm 0.00 in/hr0.0 mm/hr 0.00 in0.0 mm
08:12 PM 78.4°F25.8°C 49.1°F9.5°C 36% 3.0 mph SE4.8 kmh SE 4.0 mph6.4 kmh 29.98 in1015.2 mb 0.00 in0.0 mm 0.00 in/hr0.0 mm/hr 0.00 in0.0 mm
08:22 PM 78.2°F25.7°C 48.9°F9.4°C 36% 4.4 mph SE7.1 kmh SE 5.8 mph9.3 kmh 30.00 in1015.9 mb 0.00 in0.0 mm 0.00 in/hr0.0 mm/hr 0.00 in0.0 mm
08:33 PM 78.4°F25.8°C 49.1°F9.5°C 36% 4.6 mph SW7.4 kmh SW 6.2 mph10.0 kmh 30.00 in1015.9 mb 0.00 in0.0 mm 0.00 in/hr0.0 mm/hr 0.00 in0.0 mm
08:43 PM 78.4°F25.8°C 48.3°F9.1°C 35% Calm Calm 7.0 mph11.3 kmh 29.99 in1015.6 mb 0.00 in0.0 mm 0.00 in/hr0.0 mm/hr 0.00 in0.0 mm
08:54 PM 78.4°F25.8°C 48.3°F9.1°C 35% Calm Calm -- 29.98 in1015.2 mb 0.00 in0.0 mm 0.00 in/hr0.0 mm/hr 0.00 in0.0 mm
09:04 PM 78.4°F25.8°C 48.3°F9.1°C 35% Calm Calm 3.0 mph4.8 kmh 29.98 in1015.2 mb 0.00 in0.0 mm 0.00 in/hr0.0 mm/hr 0.00 in0.0 mm
09:15 PM 77.5°F25.3°C 48.3°F9.1°C 36% 3.3 mph W5.3 kmh W 4.4 mph7.1 kmh 29.98 in1015.2 mb 0.00 in0.0 mm 0.00 in/hr0.0 mm/hr 0.00 in0.0 mm
09:25 PM 77.1°F25.1°C 47.9°F8.8°C 36% Calm Calm -- 29.99 in1015.6 mb 0.00 in0.0 mm 0.00 in/hr0.0 mm/hr 0.00 in0.0 mm
09:36 PM 77.3°F25.2°C 48.1°F8.9°C 36% Calm Calm -- 29.99 in1015.6 mb 0.00 in0.0 mm 0.00 in/hr0.0 mm/hr 0.00 in0.0 mm
09:46 PM 78.4°F25.8°C 48.3°F9.1°C 35% 3.6 mph SSW5.8 kmh SSW 4.8 mph7.7 kmh 29.99 in1015.6 mb 0.00 in0.0 mm 0.00 in/hr0.0 mm/hr 0.00 in0.0 mm
09:57 PM 78.7°F25.9°C 48.6°F9.2°C 35% Calm Calm -- 30.00 in1015.9 mb 0.00 in0.0 mm 0.00 in/hr0.0 mm/hr 0.00 in0.0 mm
10:07 PM 79.3°F26.3°C 48.3°F9.1°C 34% 5.7 mph ESE9.2 kmh ESE 7.6 mph12.2 kmh 30.00 in1015.9 mb 0.00 in0.0 mm 0.00 in/hr0.0 mm/hr 0.00 in0.0 mm
10:18 PM 78.0°F25.6°C 48.0°F8.9°C 35% Calm Calm 7.6 mph12.2 kmh 30.01 in1016.3 mb 0.00 in0.0 mm 0.00 in/hr0.0 mm/hr 0.00 in0.0 mm
10:28 PM 78.4°F25.8°C 47.6°F8.7°C 34% 1.7 mph NE2.7 kmh NE 3.4 mph5.5 kmh 30.01 in1016.3 mb 0.00 in0.0 mm 0.00 in/hr0.0 mm/hr 0.00 in0.0 mm
10:39 PM 78.0°F25.6°C 48.7°F9.3°C 36% Calm Calm -- 30.00 in1015.9 mb 0.00 in0.0 mm 0.00 in/hr0.0 mm/hr 0.00 in0.0 mm
10:49 PM 76.9°F24.9°C 48.5°F9.2°C 37% Calm Calm 4.0 mph6.4 kmh 30.00 in1015.9 mb 0.00 in0.0 mm 0.00 in/hr0.0 mm/hr 0.00 in0.0 mm
10:59 PM 75.9°F24.4°C 49.1°F9.5°C 39% Calm Calm -- 30.00 in1015.9 mb 0.00 in0.0 mm 0.00 in/hr0.0 mm/hr 0.00 in0.0 mm
11:10 PM 75.1°F23.9°C 49.0°F9.4°C 40% Calm Calm -- 30.01 in1016.3 mb 0.00 in0.0 mm 0.00 in/hr0.0 mm/hr 0.00 in0.0 mm
11:20 PM 74.8°F23.8°C 48.1°F8.9°C 39% 1.7 mph WNW2.7 kmh WNW 4.0 mph6.4 kmh 30.01 in1016.3 mb 0.00 in0.0 mm 0.00 in/hr0.0 mm/hr 0.00 in0.0 mm
11:31 PM 75.5°F24.2°C 48.7°F9.3°C 39% 3.6 mph WNW5.8 kmh WNW 50.4 mph81.1 kmh 30.01 in1016.3 mb 0.00 in0.0 mm 0.00 in/hr0.0 mm/hr 0.00 in0.0 mm
11:41 PM 75.3°F24.1°C 49.2°F9.6°C 40% Calm Calm -- 30.00 in1015.9 mb 0.00 in0.0 mm 0.00 in/hr0.0 mm/hr 0.00 in0.0 mm
11:52 PM 74.2°F23.4°C 48.9°F9.4°C 41% Calm Calm -- 30.00 in1015.9 mb 0.00 in0.0 mm 0.00 in/hr0.0 mm/hr 0.00 in0.0 mm